sensor_id;sensor_type;location;lat;lon;timestamp;temperature;humidity
7476;DHT22;3779;49.216;8.650;2023-01-16T00:01:43;19.30;34.40
7476;DHT22;3779;49.216;8.650;2023-01-16T00:04:29;19.30;33.10
7476;DHT22;3779;49.216;8.650;2023-01-16T00:07:15;19.30;32.90
7476;DHT22;3779;49.216;8.650;2023-01-16T00:10:01;19.40;33.30
7476;DHT22;3779;49.216;8.650;2023-01-16T00:12:48;19.30;33.00
7476;DHT22;3779;49.216;8.650;2023-01-16T00:15:34;19.40;33.80
7476;DHT22;3779;49.216;8.650;2023-01-16T00:18:20;19.40;33.70
7476;DHT22;3779;49.216;8.650;2023-01-16T00:21:05;19.40;34.00
7476;DHT22;3779;49.216;8.650;2023-01-16T00:23:55;19.50;34.10
7476;DHT22;3779;49.216;8.650;2023-01-16T00:26:42;19.50;34.60
7476;DHT22;3779;49.216;8.650;2023-01-16T00:29:28;19.50;33.10
7476;DHT22;3779;49.216;8.650;2023-01-16T00:32:14;19.50;33.90
7476;DHT22;3779;49.216;8.650;2023-01-16T00:35:01;19.50;33.40
7476;DHT22;3779;49.216;8.650;2023-01-16T00:37:47;19.40;33.70
7476;DHT22;3779;49.216;8.650;2023-01-16T00:40:33;19.30;30.80
7476;DHT22;3779;49.216;8.650;2023-01-16T00:43:19;19.30;33.80
7476;DHT22;3779;49.216;8.650;2023-01-16T00:46:05;19.40;31.20
7476;DHT22;3779;49.216;8.650;2023-01-16T00:48:51;19.40;34.90
7476;DHT22;3779;49.216;8.650;2023-01-16T00:51:37;19.30;31.90
7476;DHT22;3779;49.216;8.650;2023-01-16T00:54:23;19.30;34.30
7476;DHT22;3779;49.216;8.650;2023-01-16T00:57:09;19.40;33.90
7476;DHT22;3779;49.216;8.650;2023-01-16T00:59:55;19.40;32.90
7476;DHT22;3779;49.216;8.650;2023-01-16T01:02:40;19.40;33.30
7476;DHT22;3779;49.216;8.650;2023-01-16T01:05:26;19.40;34.40
7476;DHT22;3779;49.216;8.650;2023-01-16T01:08:12;19.40;34.10
7476;DHT22;3779;49.216;8.650;2023-01-16T01:11:12;19.40;33.30
7476;DHT22;3779;49.216;8.650;2023-01-16T01:13:59;19.40;33.50
7476;DHT22;3779;49.216;8.650;2023-01-16T01:16:45;19.30;30.90
7476;DHT22;3779;49.216;8.650;2023-01-16T01:19:31;19.20;33.90
7476;DHT22;3779;49.216;8.650;2023-01-16T01:22:16;19.20;31.30
7476;DHT22;3779;49.216;8.650;2023-01-16T01:25:02;19.20;33.70
7476;DHT22;3779;49.216;8.650;2023-01-16T01:27:49;19.20;34.90
7476;DHT22;3779;49.216;8.650;2023-01-16T01:30:35;19.30;34.50
7476;DHT22;3779;49.216;8.650;2023-01-16T01:33:20;19.40;34.20
7476;DHT22;3779;49.216;8.650;2023-01-16T01:36:07;19.40;33.00
7476;DHT22;3779;49.216;8.650;2023-01-16T01:38:53;19.40;33.30
7476;DHT22;3779;49.216;8.650;2023-01-16T01:41:38;19.30;30.90
7476;DHT22;3779;49.216;8.650;2023-01-16T01:44:48;19.20;33.10
7476;DHT22;3779;49.216;8.650;2023-01-16T01:47:36;19.30;35.50
7476;DHT22;3779;49.216;8.650;2023-01-16T01:50:37;19.30;34.40
7476;DHT22;3779;49.216;8.650;2023-01-16T01:56:32;19.40;34.00
7476;DHT22;3779;49.216;8.650;2023-01-16T01:59:26;19.50;36.30
7476;DHT22;3779;49.216;8.650;2023-01-16T02:02:16;19.50;34.50
7476;DHT22;3779;49.216;8.650;2023-01-16T02:05:06;19.50;34.40
7476;DHT22;3779;49.216;8.650;2023-01-16T02:07:53;19.50;34.00
7476;DHT22;3779;49.216;8.650;2023-01-16T02:10:45;19.40;30.60
7476;DHT22;3779;49.216;8.650;2023-01-16T02:13:33;19.40;34.50
7476;DHT22;3779;49.216;8.650;2023-01-16T02:16:19;19.40;33.70
7476;DHT22;3779;49.216;8.650;2023-01-16T02:19:44;19.50;34.60
7476;DHT22;3779;49.216;8.650;2023-01-16T02:26:31;19.40;34.50
7476;DHT22;3779;49.216;8.650;2023-01-16T02:44:55;19.50;35.20
7476;DHT22;3779;49.216;8.650;2023-01-16T02:48:06;19.50;35.30
7476;DHT22;3779;49.216;8.650;2023-01-16T02:54:14;19.50;34.10
7476;DHT22;3779;49.216;8.650;2023-01-16T02:57:07;19.40;33.90
7476;DHT22;3779;49.216;8.650;2023-01-16T02:59:54;19.40;33.60
7476;DHT22;3779;49.216;8.650;2023-01-16T03:02:39;19.30;31.10
7476;DHT22;3779;49.216;8.650;2023-01-16T03:05:28;19.30;33.40
7476;DHT22;3779;49.216;8.650;2023-01-16T03:08:31;19.30;31.90
7476;DHT22;3779;49.216;8.650;2023-01-16T03:11:24;19.10;32.80
7476;DHT22;3779;49.216;8.650;2023-01-16T03:14:19;19.10;33.20
7476;DHT22;3779;49.216;8.650;2023-01-16T03:17:32;19.20;33.10
7476;DHT22;3779;49.216;8.650;2023-01-16T03:20:50;19.20;32.50
7476;DHT22;3779;49.216;8.650;2023-01-16T03:23:52;19.20;32.70
7476;DHT22;3779;49.216;8.650;2023-01-16T03:26:45;19.20;33.10
7476;DHT22;3779;49.216;8.650;2023-01-16T03:29:51;19.10;30.70
7476;DHT22;3779;49.216;8.650;2023-01-16T03:32:49;19.10;33.60
7476;DHT22;3779;49.216;8.650;2023-01-16T03:35:57;19.10;32.60
7476;DHT22;3779;49.216;8.650;2023-01-16T03:38:46;19.20;34.50
7476;DHT22;3779;49.216;8.650;2023-01-16T03:41:34;19.10;31.00
7476;DHT22;3779;49.216;8.650;2023-01-16T03:44:27;19.10;32.70
7476;DHT22;3779;49.216;8.650;2023-01-16T03:47:20;19.10;32.90
7476;DHT22;3779;49.216;8.650;2023-01-16T03:50:10;19.10;32.70
7476;DHT22;3779;49.216;8.650;2023-01-16T03:53:05;19.10;31.80
7476;DHT22;3779;49.216;8.650;2023-01-16T03:56:07;19.20;32.60
7476;DHT22;3779;49.216;8.650;2023-01-16T03:58:56;19.20;33.50
7476;DHT22;3779;49.216;8.650;2023-01-16T04:02:03;19.20;32.80
7476;DHT22;3779;49.216;8.650;2023-01-16T04:08:21;19.30;31.90
7476;DHT22;3779;49.216;8.650;2023-01-16T04:11:08;19.20;31.10
7476;DHT22;3779;49.216;8.650;2023-01-16T04:13:56;18.90;30.30
7476;DHT22;3779;49.216;8.650;2023-01-16T04:16:43;18.80;32.40
7476;DHT22;3779;49.216;8.650;2023-01-16T04:19:30;18.90;31.00
7476;DHT22;3779;49.216;8.650;2023-01-16T04:22:20;19.00;34.00
7476;DHT22;3779;49.216;8.650;2023-01-16T04:25:08;19.10;32.00
7476;DHT22;3779;49.216;8.650;2023-01-16T04:27:54;19.00;30.70
7476;DHT22;3779;49.216;8.650;2023-01-16T04:30:40;19.00;32.60
7476;DHT22;3779;49.216;8.650;2023-01-16T04:33:26;19.10;32.40
7476;DHT22;3779;49.216;8.650;2023-01-16T04:36:12;19.10;32.60
7476;DHT22;3779;49.216;8.650;2023-01-16T04:38:57;19.10;31.50
7476;DHT22;3779;49.216;8.650;2023-01-16T04:41:43;19.10;30.80
7476;DHT22;3779;49.216;8.650;2023-01-16T04:44:32;19.10;30.50
7476;DHT22;3779;49.216;8.650;2023-01-16T04:47:18;19.10;34.00
7476;DHT22;3779;49.216;8.650;2023-01-16T04:50:04;19.10;31.70
7476;DHT22;3779;49.216;8.650;2023-01-16T04:52:50;19.20;31.40
7476;DHT22;3779;49.216;8.650;2023-01-16T04:55:36;19.20;31.40
7476;DHT22;3779;49.216;8.650;2023-01-16T04:58:22;19.10;31.70
7476;DHT22;3779;49.216;8.650;2023-01-16T05:01:08;19.10;32.90
7476;DHT22;3779;49.216;8.650;2023-01-16T05:03:53;19.10;31.70
7476;DHT22;3779;49.216;8.650;2023-01-16T05:06:40;19.10;31.30
7476;DHT22;3779;49.216;8.650;2023-01-16T05:09:26;19.10;31.90
7476;DHT22;3779;49.216;8.650;2023-01-16T05:12:12;19.10;31.10
7476;DHT22;3779;49.216;8.650;2023-01-16T05:14:57;19.10;31.90
7476;DHT22;3779;49.216;8.650;2023-01-16T05:17:43;19.10;31.60
7476;DHT22;3779;49.216;8.650;2023-01-16T05:20:29;19.00;30.70
7476;DHT22;3779;49.216;8.650;2023-01-16T05:23:15;19.00;31.40
7476;DHT22;3779;49.216;8.650;2023-01-16T05:26:01;19.00;32.30
7476;DHT22;3779;49.216;8.650;2023-01-16T05:28:47;19.00;30.90
7476;DHT22;3779;49.216;8.650;2023-01-16T05:31:33;19.10;31.40
7476;DHT22;3779;49.216;8.650;2023-01-16T05:34:19;19.20;32.50
7476;DHT22;3779;49.216;8.650;2023-01-16T05:37:05;19.20;32.50
7476;DHT22;3779;49.216;8.650;2023-01-16T05:39:51;19.30;33.30
7476;DHT22;3779;49.216;8.650;2023-01-16T05:42:37;19.30;30.80
7476;DHT22;3779;49.216;8.650;2023-01-16T05:45:23;19.20;31.00
7476;DHT22;3779;49.216;8.650;2023-01-16T05:48:09;19.20;31.20
7476;DHT22;3779;49.216;8.650;2023-01-16T05:50:55;19.20;31.50
7476;DHT22;3779;49.216;8.650;2023-01-16T05:53:40;19.20;31.40
7476;DHT22;3779;49.216;8.650;2023-01-16T05:56:27;19.20;31.00
7476;DHT22;3779;49.216;8.650;2023-01-16T05:59:12;19.20;30.70
7476;DHT22;3779;49.216;8.650;2023-01-16T06:01:58;19.10;30.70
7476;DHT22;3779;49.216;8.650;2023-01-16T06:04:44;19.30;32.30
7476;DHT22;3779;49.216;8.650;2023-01-16T06:07:30;19.20;30.70
7476;DHT22;3779;49.216;8.650;2023-01-16T06:10:16;19.20;31.60
7476;DHT22;3779;49.216;8.650;2023-01-16T06:13:02;19.20;30.90
7476;DHT22;3779;49.216;8.650;2023-01-16T06:15:48;19.30;31.40
7476;DHT22;3779;49.216;8.650;2023-01-16T06:18:34;19.20;30.20
7476;DHT22;3779;49.216;8.650;2023-01-16T06:21:20;19.10;31.00
7476;DHT22;3779;49.216;8.650;2023-01-16T06:24:06;19.10;30.00
7476;DHT22;3779;49.216;8.650;2023-01-16T06:26:52;19.10;31.60
7476;DHT22;3779;49.216;8.650;2023-01-16T06:29:38;19.00;30.80
7476;DHT22;3779;49.216;8.650;2023-01-16T06:32:25;19.00;31.80
7476;DHT22;3779;49.216;8.650;2023-01-16T06:35:11;19.00;30.90
7476;DHT22;3779;49.216;8.650;2023-01-16T06:37:57;19.00;30.20
7476;DHT22;3779;49.216;8.650;2023-01-16T06:40:43;19.00;30.20
7476;DHT22;3779;49.216;8.650;2023-01-16T06:43:30;19.10;33.30
7476;DHT22;3779;49.216;8.650;2023-01-16T06:46:16;19.20;30.70
7476;DHT22;3779;49.216;8.650;2023-01-16T06:49:02;19.10;29.50
7476;DHT22;3779;49.216;8.650;2023-01-16T06:51:48;19.20;32.20
7476;DHT22;3779;49.216;8.650;2023-01-16T06:54:33;19.20;30.00
7476;DHT22;3779;49.216;8.650;2023-01-16T06:57:19;19.20;30.10
7476;DHT22;3779;49.216;8.650;2023-01-16T07:00:05;19.10;29.80
7476;DHT22;3779;49.216;8.650;2023-01-16T07:02:53;19.00;29.90
7476;DHT22;3779;49.216;8.650;2023-01-16T07:05:44;19.00;29.90
7476;DHT22;3779;49.216;8.650;2023-01-16T07:08:30;19.00;29.30
7476;DHT22;3779;49.216;8.650;2023-01-16T07:11:17;19.00;29.90
7476;DHT22;3779;49.216;8.650;2023-01-16T07:14:03;19.00;29.30
7476;DHT22;3779;49.216;8.650;2023-01-16T07:17:10;19.00;31.80
7476;DHT22;3779;49.216;8.650;2023-01-16T07:20:15;19.00;29.90
7476;DHT22;3779;49.216;8.650;2023-01-16T07:23:23;18.90;31.10
7476;DHT22;3779;49.216;8.650;2023-01-16T07:26:11;19.00;30.60
7476;DHT22;3779;49.216;8.650;2023-01-16T07:28:58;19.00;28.80
7476;DHT22;3779;49.216;8.650;2023-01-16T07:31:44;18.90;28.40
7476;DHT22;3779;49.216;8.650;2023-01-16T07:34:30;18.80;28.40
7476;DHT22;3779;49.216;8.650;2023-01-16T07:37:16;18.60;28.50
7476;DHT22;3779;49.216;8.650;2023-01-16T07:40:02;18.70;28.40
7476;DHT22;3779;49.216;8.650;2023-01-16T07:42:50;18.60;28.10
7476;DHT22;3779;49.216;8.650;2023-01-16T07:45:36;18.60;30.00
7476;DHT22;3779;49.216;8.650;2023-01-16T07:48:23;18.60;33.20
7476;DHT22;3779;49.216;8.650;2023-01-16T07:51:09;18.80;32.50
7476;DHT22;3779;49.216;8.650;2023-01-16T07:53:55;18.90;32.80
7476;DHT22;3779;49.216;8.650;2023-01-16T07:56:40;19.00;32.40
7476;DHT22;3779;49.216;8.650;2023-01-16T07:59:26;19.00;32.20
7476;DHT22;3779;49.216;8.650;2023-01-16T08:02:12;19.00;30.00
7476;DHT22;3779;49.216;8.650;2023-01-16T08:04:58;19.00;30.90
7476;DHT22;3779;49.216;8.650;2023-01-16T08:07:44;19.00;31.20
7476;DHT22;3779;49.216;8.650;2023-01-16T08:10:30;19.00;33.10
7476;DHT22;3779;49.216;8.650;2023-01-16T08:13:16;19.10;33.80
7476;DHT22;3779;49.216;8.650;2023-01-16T08:16:02;19.20;33.50
7476;DHT22;3779;49.216;8.650;2023-01-16T08:18:48;19.20;31.40
7476;DHT22;3779;49.216;8.650;2023-01-16T08:21:34;19.20;31.30
7476;DHT22;3779;49.216;8.650;2023-01-16T08:24:20;19.20;31.40
7476;DHT22;3779;49.216;8.650;2023-01-16T08:27:06;19.20;28.70
7476;DHT22;3779;49.216;8.650;2023-01-16T08:29:52;19.10;29.40
7476;DHT22;3779;49.216;8.650;2023-01-16T08:32:38;19.10;30.00
7476;DHT22;3779;49.216;8.650;2023-01-16T08:35:24;19.10;31.40
7476;DHT22;3779;49.216;8.650;2023-01-16T08:38:10;19.10;30.50
7476;DHT22;3779;49.216;8.650;2023-01-16T08:40:56;19.10;29.80
7476;DHT22;3779;49.216;8.650;2023-01-16T08:43:42;19.10;29.60
7476;DHT22;3779;49.216;8.650;2023-01-16T08:46:54;19.00;29.50
7476;DHT22;3779;49.216;8.650;2023-01-16T08:50:00;19.00;32.90
7476;DHT22;3779;49.216;8.650;2023-01-16T08:53:06;19.00;30.70
7476;DHT22;3779;49.216;8.650;2023-01-16T08:55:52;19.00;31.10
7476;DHT22;3779;49.216;8.650;2023-01-16T08:58:38;19.00;29.50
7476;DHT22;3779;49.216;8.650;2023-01-16T09:01:24;19.00;30.50
7476;DHT22;3779;49.216;8.650;2023-01-16T09:04:12;19.00;30.40
7476;DHT22;3779;49.216;8.650;2023-01-16T09:06:57;19.00;32.10
7476;DHT22;3779;49.216;8.650;2023-01-16T09:09:43;19.20;32.60
7476;DHT22;3779;49.216;8.650;2023-01-16T09:12:29;19.10;30.70
7476;DHT22;3779;49.216;8.650;2023-01-16T09:15:35;19.10;30.50
7476;DHT22;3779;49.216;8.650;2023-01-16T09:18:20;19.10;31.90
7476;DHT22;3779;49.216;8.650;2023-01-16T09:21:07;19.30;31.80
7476;DHT22;3779;49.216;8.650;2023-01-16T09:23:52;19.10;31.00
7476;DHT22;3779;49.216;8.650;2023-01-16T09:26:39;19.10;31.40
7476;DHT22;3779;49.216;8.650;2023-01-16T09:29:25;19.10;29.90
7476;DHT22;3779;49.216;8.650;2023-01-16T09:32:13;19.00;32.20
7476;DHT22;3779;49.216;8.650;2023-01-16T09:34:59;19.10;29.80
7476;DHT22;3779;49.216;8.650;2023-01-16T09:37:45;19.10;29.50
7476;DHT22;3779;49.216;8.650;2023-01-16T09:40:31;19.00;29.70
7476;DHT22;3779;49.216;8.650;2023-01-16T09:46:27;19.00;30.70
7476;DHT22;3779;49.216;8.650;2023-01-16T09:49:24;19.00;29.70
7476;DHT22;3779;49.216;8.650;2023-01-16T09:52:19;19.00;34.70
7476;DHT22;3779;49.216;8.650;2023-01-16T09:55:33;19.10;30.60
7476;DHT22;3779;49.216;8.650;2023-01-16T09:58:46;19.10;30.70
7476;DHT22;3779;49.216;8.650;2023-01-16T10:01:36;19.00;31.40
7476;DHT22;3779;49.216;8.650;2023-01-16T10:04:25;19.00;34.10
7476;DHT22;3779;49.216;8.650;2023-01-16T10:16:41;19.20;31.50
7476;DHT22;3779;49.216;8.650;2023-01-16T10:19:53;19.30;32.40
7476;DHT22;3779;49.216;8.650;2023-01-16T10:25:58;18.90;30.90
7476;DHT22;3779;49.216;8.650;2023-01-16T10:31:47;19.00;34.90
7476;DHT22;3779;49.216;8.650;2023-01-16T10:34:54;19.10;31.40
7476;DHT22;3779;49.216;8.650;2023-01-16T10:37:44;19.00;36.20
7476;DHT22;3779;49.216;8.650;2023-01-16T10:40:30;19.20;32.60
7476;DHT22;3779;49.216;8.650;2023-01-16T10:43:21;19.10;31.60
7476;DHT22;3779;49.216;8.650;2023-01-16T10:46:31;19.10;31.20
7476;DHT22;3779;49.216;8.650;2023-01-16T10:49:37;19.10;35.30
7476;DHT22;3779;49.216;8.650;2023-01-16T10:52:23;19.10;33.90
7476;DHT22;3779;49.216;8.650;2023-01-16T10:55:10;19.20;32.90
7476;DHT22;3779;49.216;8.650;2023-01-16T10:57:58;19.20;32.20
7476;DHT22;3779;49.216;8.650;2023-01-16T11:00:46;19.20;32.50
7476;DHT22;3779;49.216;8.650;2023-01-16T11:03:50;19.10;31.30
7476;DHT22;3779;49.216;8.650;2023-01-16T11:06:37;19.00;32.20
7476;DHT22;3779;49.216;8.650;2023-01-16T11:09:26;19.00;34.30
7476;DHT22;3779;49.216;8.650;2023-01-16T11:12:22;19.10;33.10
7476;DHT22;3779;49.216;8.650;2023-01-16T11:15:28;19.20;35.10
7476;DHT22;3779;49.216;8.650;2023-01-16T11:18:35;19.20;32.20
7476;DHT22;3779;49.216;8.650;2023-01-16T11:21:29;19.20;34.10
7476;DHT22;3779;49.216;8.650;2023-01-16T11:24:22;19.20;34.40
7476;DHT22;3779;49.216;8.650;2023-01-16T11:27:15;19.20;32.60
7476;DHT22;3779;49.216;8.650;2023-01-16T11:30:07;19.20;34.20
7476;DHT22;3779;49.216;8.650;2023-01-16T11:33:00;19.20;35.60
7476;DHT22;3779;49.216;8.650;2023-01-16T11:35:54;19.30;33.20
7476;DHT22;3779;49.216;8.650;2023-01-16T11:38:44;19.20;32.40
7476;DHT22;3779;49.216;8.650;2023-01-16T11:41:36;19.20;32.60
7476;DHT22;3779;49.216;8.650;2023-01-16T11:44:32;19.20;32.80
7476;DHT22;3779;49.216;8.650;2023-01-16T11:47:42;19.20;33.80
7476;DHT22;3779;49.216;8.650;2023-01-16T11:50:32;19.20;32.60
7476;DHT22;3779;49.216;8.650;2023-01-16T11:53:18;19.20;32.20
7476;DHT22;3779;49.216;8.650;2023-01-16T11:59:26;19.20;34.10
7476;DHT22;3779;49.216;8.650;2023-01-16T12:02:25;19.20;34.10
7476;DHT22;3779;49.216;8.650;2023-01-16T12:09:11;19.20;37.30
7476;DHT22;3779;49.216;8.650;2023-01-16T12:12:17;19.20;33.60
7476;DHT22;3779;49.216;8.650;2023-01-16T12:15:35;19.20;38.20
7476;DHT22;3779;49.216;8.650;2023-01-16T12:21:35;19.30;32.60
7476;DHT22;3779;49.216;8.650;2023-01-16T12:39:55;19.20;35.50
7476;DHT22;3779;49.216;8.650;2023-01-16T12:45:57;19.30;33.40
7476;DHT22;3779;49.216;8.650;2023-01-16T12:48:51;19.10;31.60
7476;DHT22;3779;49.216;8.650;2023-01-16T12:52:05;19.00;32.80
7476;DHT22;3779;49.216;8.650;2023-01-16T12:58:08;19.10;32.70
7476;DHT22;3779;49.216;8.650;2023-01-16T13:01:20;19.10;33.10
7476;DHT22;3779;49.216;8.650;2023-01-16T13:07:05;19.20;35.20
7476;DHT22;3779;49.216;8.650;2023-01-16T13:09:59;19.20;32.80
7476;DHT22;3779;49.216;8.650;2023-01-16T13:13:13;19.10;34.00
7476;DHT22;3779;49.216;8.650;2023-01-16T13:16:17;19.10;34.60
7476;DHT22;3779;49.216;8.650;2023-01-16T13:19:13;19.20;34.20
7476;DHT22;3779;49.216;8.650;2023-01-16T13:22:29;19.20;33.80
7476;DHT22;3779;49.216;8.650;2023-01-16T13:25:26;19.10;33.90
7476;DHT22;3779;49.216;8.650;2023-01-16T13:28:21;19.30;35.20
7476;DHT22;3779;49.216;8.650;2023-01-16T13:31:48;19.20;33.80
7476;DHT22;3779;49.216;8.650;2023-01-16T13:34:30;19.20;32.60
7476;DHT22;3779;49.216;8.650;2023-01-16T13:37:22;19.10;34.20
7476;DHT22;3779;49.216;8.650;2023-01-16T13:40:28;18.90;32.50
7476;DHT22;3779;49.216;8.650;2023-01-16T13:43:25;18.90;34.50
7476;DHT22;3779;49.216;8.650;2023-01-16T13:46:32;19.00;35.80
7476;DHT22;3779;49.216;8.650;2023-01-16T13:49:23;19.20;35.60
7476;DHT22;3779;49.216;8.650;2023-01-16T13:52:24;19.20;33.60
7476;DHT22;3779;49.216;8.650;2023-01-16T13:55:34;19.20;32.90
7476;DHT22;3779;49.216;8.650;2023-01-16T13:58:25;19.20;33.50
7476;DHT22;3779;49.216;8.650;2023-01-16T14:04:28;19.10;37.10
7476;DHT22;3779;49.216;8.650;2023-01-16T14:13:44;19.20;33.60
7476;DHT22;3779;49.216;8.650;2023-01-16T14:16:35;19.20;32.70
7476;DHT22;3779;49.216;8.650;2023-01-16T14:19:24;19.20;32.80
7476;DHT22;3779;49.216;8.650;2023-01-16T14:22:18;19.20;34.60
7476;DHT22;3779;49.216;8.650;2023-01-16T14:25:05;19.20;34.40
7476;DHT22;3779;49.216;8.650;2023-01-16T14:27:54;19.30;33.90
7476;DHT22;3779;49.216;8.650;2023-01-16T14:30:40;19.30;33.60
7476;DHT22;3779;49.216;8.650;2023-01-16T14:33:28;19.30;34.00
7476;DHT22;3779;49.216;8.650;2023-01-16T14:36:16;19.30;33.50
7476;DHT22;3779;49.216;8.650;2023-01-16T14:39:04;19.30;34.20
7476;DHT22;3779;49.216;8.650;2023-01-16T14:41:50;19.30;32.90
7476;DHT22;3779;49.216;8.650;2023-01-16T14:48:31;19.10;33.20
7476;DHT22;3779;49.216;8.650;2023-01-16T14:51:36;19.20;33.00
7476;DHT22;3779;49.216;8.650;2023-01-16T14:54:41;19.10;33.20
7476;DHT22;3779;49.216;8.650;2023-01-16T14:57:46;19.00;34.20
7476;DHT22;3779;49.216;8.650;2023-01-16T15:00:34;19.10;34.90
7476;DHT22;3779;49.216;8.650;2023-01-16T15:03:26;19.20;34.80
7476;DHT22;3779;49.216;8.650;2023-01-16T15:06:12;19.30;34.70
7476;DHT22;3779;49.216;8.650;2023-01-16T15:08:59;19.30;36.50
7476;DHT22;3779;49.216;8.650;2023-01-16T15:11:57;19.40;35.70
7476;DHT22;3779;49.216;8.650;2023-01-16T15:14:57;19.30;34.90
7476;DHT22;3779;49.216;8.650;2023-01-16T15:17:44;19.30;36.30
7476;DHT22;3779;49.216;8.650;2023-01-16T15:20:48;19.30;35.70
7476;DHT22;3779;49.216;8.650;2023-01-16T15:23:55;19.20;35.50
7476;DHT22;3779;49.216;8.650;2023-01-16T15:27:08;19.20;35.60
7476;DHT22;3779;49.216;8.650;2023-01-16T15:30:03;19.10;36.10
7476;DHT22;3779;49.216;8.650;2023-01-16T15:33:00;19.20;36.20
7476;DHT22;3779;49.216;8.650;2023-01-16T15:36:18;19.10;36.90
7476;DHT22;3779;49.216;8.650;2023-01-16T15:42:15;19.20;37.50
7476;DHT22;3779;49.216;8.650;2023-01-16T15:45:23;19.20;37.90
7476;DHT22;3779;49.216;8.650;2023-01-16T15:51:28;19.20;37.90
7476;DHT22;3779;49.216;8.650;2023-01-16T15:54:15;19.20;39.00
7476;DHT22;3779;49.216;8.650;2023-01-16T15:57:02;19.20;37.60
7476;DHT22;3779;49.216;8.650;2023-01-16T15:59:53;19.30;38.10
7476;DHT22;3779;49.216;8.650;2023-01-16T16:02:41;19.10;40.30
7476;DHT22;3779;49.216;8.650;2023-01-16T16:05:30;19.20;38.50
7476;DHT22;3779;49.216;8.650;2023-01-16T16:08:21;19.20;39.40
7476;DHT22;3779;49.216;8.650;2023-01-16T16:11:08;19.20;37.20
7476;DHT22;3779;49.216;8.650;2023-01-16T16:14:20;19.20;36.50
7476;DHT22;3779;49.216;8.650;2023-01-16T16:17:35;19.10;38.00
7476;DHT22;3779;49.216;8.650;2023-01-16T16:20:42;19.20;38.80
7476;DHT22;3779;49.216;8.650;2023-01-16T16:23:29;19.10;37.70
7476;DHT22;3779;49.216;8.650;2023-01-16T16:26:15;19.10;37.20
7476;DHT22;3779;49.216;8.650;2023-01-16T16:29:02;19.10;38.00
7476;DHT22;3779;49.216;8.650;2023-01-16T16:31:50;19.10;37.00
7476;DHT22;3779;49.216;8.650;2023-01-16T16:34:36;19.10;37.10
7476;DHT22;3779;49.216;8.650;2023-01-16T16:37:23;19.10;37.50
7476;DHT22;3779;49.216;8.650;2023-01-16T16:40:16;19.00;38.60
7476;DHT22;3779;49.216;8.650;2023-01-16T16:43:02;19.00;38.50
7476;DHT22;3779;49.216;8.650;2023-01-16T16:45:48;19.10;37.70
7476;DHT22;3779;49.216;8.650;2023-01-16T16:48:34;19.10;38.50
7476;DHT22;3779;49.216;8.650;2023-01-16T16:51:30;19.10;37.70
7476;DHT22;3779;49.216;8.650;2023-01-16T16:54:17;19.00;37.90
7476;DHT22;3779;49.216;8.650;2023-01-16T16:57:03;19.00;37.80
7476;DHT22;3779;49.216;8.650;2023-01-16T16:59:49;19.00;38.90
7476;DHT22;3779;49.216;8.650;2023-01-16T17:02:36;19.00;38.00
7476;DHT22;3779;49.216;8.650;2023-01-16T17:05:21;19.00;37.80
7476;DHT22;3779;49.216;8.650;2023-01-16T17:08:15;19.00;37.60
7476;DHT22;3779;49.216;8.650;2023-01-16T17:11:02;19.00;38.40
7476;DHT22;3779;49.216;8.650;2023-01-16T17:13:48;19.00;38.60
7476;DHT22;3779;49.216;8.650;2023-01-16T17:16:34;19.00;38.50
7476;DHT22;3779;49.216;8.650;2023-01-16T17:19:29;19.00;38.10
7476;DHT22;3779;49.216;8.650;2023-01-16T17:22:16;18.90;38.90
7476;DHT22;3779;49.216;8.650;2023-01-16T17:25:03;18.90;39.00
7476;DHT22;3779;49.216;8.650;2023-01-16T17:27:50;18.90;39.20
7476;DHT22;3779;49.216;8.650;2023-01-16T17:30:38;19.00;39.00
7476;DHT22;3779;49.216;8.650;2023-01-16T17:33:24;19.00;38.70
7476;DHT22;3779;49.216;8.650;2023-01-16T17:36:19;19.00;41.20
7476;DHT22;3779;49.216;8.650;2023-01-16T17:39:06;19.10;41.90
7476;DHT22;3779;49.216;8.650;2023-01-16T17:41:52;19.10;40.20
7476;DHT22;3779;49.216;8.650;2023-01-16T17:44:38;19.20;40.90
7476;DHT22;3779;49.216;8.650;2023-01-16T17:47:43;19.20;39.70
7476;DHT22;3779;49.216;8.650;2023-01-16T17:50:29;19.20;39.30
7476;DHT22;3779;49.216;8.650;2023-01-16T17:53:18;19.20;39.30
7476;DHT22;3779;49.216;8.650;2023-01-16T17:56:05;19.10;40.00
7476;DHT22;3779;49.216;8.650;2023-01-16T17:58:52;19.10;40.40
7476;DHT22;3779;49.216;8.650;2023-01-16T18:01:52;19.10;41.00
7476;DHT22;3779;49.216;8.650;2023-01-16T18:04:39;19.20;40.50
7476;DHT22;3779;49.216;8.650;2023-01-16T18:07:25;19.10;40.00
7476;DHT22;3779;49.216;8.650;2023-01-16T18:10:11;19.10;39.50
7476;DHT22;3779;49.216;8.650;2023-01-16T18:12:57;19.10;39.00
7476;DHT22;3779;49.216;8.650;2023-01-16T18:16:04;19.00;40.40
7476;DHT22;3779;49.216;8.650;2023-01-16T18:19:09;19.00;39.60
7476;DHT22;3779;49.216;8.650;2023-01-16T18:21:55;19.00;39.40
7476;DHT22;3779;49.216;8.650;2023-01-16T18:24:47;18.90;38.80
7476;DHT22;3779;49.216;8.650;2023-01-16T18:27:34;18.50;38.90
7476;DHT22;3779;49.216;8.650;2023-01-16T18:30:20;18.90;39.90
7476;DHT22;3779;49.216;8.650;2023-01-16T18:33:06;18.90;40.60
7476;DHT22;3779;49.216;8.650;2023-01-16T18:36:00;19.00;39.80
7476;DHT22;3779;49.216;8.650;2023-01-16T18:38:47;18.80;39.40
7476;DHT22;3779;49.216;8.650;2023-01-16T18:41:51;18.90;40.30
7476;DHT22;3779;49.216;8.650;2023-01-16T18:44:55;19.00;39.70
7476;DHT22;3779;49.216;8.650;2023-01-16T18:48:00;18.90;40.20
7476;DHT22;3779;49.216;8.650;2023-01-16T18:51:10;18.80;39.00
7476;DHT22;3779;49.216;8.650;2023-01-16T18:54:17;18.80;41.40
7476;DHT22;3779;49.216;8.650;2023-01-16T18:57:24;18.90;39.40
7476;DHT22;3779;49.216;8.650;2023-01-16T19:00:29;18.90;39.30
7476;DHT22;3779;49.216;8.650;2023-01-16T19:03:33;18.90;38.70
7476;DHT22;3779;49.216;8.650;2023-01-16T19:06:19;18.90;39.10
7476;DHT22;3779;49.216;8.650;2023-01-16T19:09:06;18.80;38.60
7476;DHT22;3779;49.216;8.650;2023-01-16T19:11:52;18.80;39.90
7476;DHT22;3779;49.216;8.650;2023-01-16T19:14:41;18.80;40.30
7476;DHT22;3779;49.216;8.650;2023-01-16T19:17:28;18.90;39.30
7476;DHT22;3779;49.216;8.650;2023-01-16T19:20:14;18.90;39.00
7476;DHT22;3779;49.216;8.650;2023-01-16T19:23:07;18.90;38.70
7476;DHT22;3779;49.216;8.650;2023-01-16T19:25:53;18.90;39.90
7476;DHT22;3779;49.216;8.650;2023-01-16T19:28:38;18.90;41.30
7476;DHT22;3779;49.216;8.650;2023-01-16T19:31:24;19.00;39.00
7476;DHT22;3779;49.216;8.650;2023-01-16T19:34:11;18.90;38.70
7476;DHT22;3779;49.216;8.650;2023-01-16T19:36:57;18.90;38.60
7476;DHT22;3779;49.216;8.650;2023-01-16T19:39:43;18.90;40.70
7476;DHT22;3779;49.216;8.650;2023-01-16T19:42:28;18.90;39.30
7476;DHT22;3779;49.216;8.650;2023-01-16T19:45:35;19.00;38.70
7476;DHT22;3779;49.216;8.650;2023-01-16T19:48:39;18.90;39.10
7476;DHT22;3779;49.216;8.650;2023-01-16T19:51:26;18.90;40.80
7476;DHT22;3779;49.216;8.650;2023-01-16T19:54:12;18.90;38.30
7476;DHT22;3779;49.216;8.650;2023-01-16T19:56:58;18.90;39.40
7476;DHT22;3779;49.216;8.650;2023-01-16T19:59:45;18.90;37.90
7476;DHT22;3779;49.216;8.650;2023-01-16T20:02:31;18.90;39.30
7476;DHT22;3779;49.216;8.650;2023-01-16T20:05:19;18.90;39.40
7476;DHT22;3779;49.216;8.650;2023-01-16T20:08:05;18.90;38.20
7476;DHT22;3779;49.216;8.650;2023-01-16T20:10:51;18.90;38.30
7476;DHT22;3779;49.216;8.650;2023-01-16T20:13:37;19.00;37.50
7476;DHT22;3779;49.216;8.650;2023-01-16T20:16:23;18.60;37.80
7476;DHT22;3779;49.216;8.650;2023-01-16T20:19:10;18.90;38.40
7476;DHT22;3779;49.216;8.650;2023-01-16T20:21:57;18.90;37.50